createdAt,value
2018-05-02T00:01:14.557Z,99.60
2018-05-02T00:03:42.286Z,99.90
2018-05-02T00:06:09.933Z,99.60
2018-05-02T00:08:37.600Z,99.80
2018-05-02T00:11:05.338Z,99.90
2018-05-02T00:13:35.368Z,99.90
2018-05-02T00:16:02.999Z,99.90
2018-05-02T00:18:32.457Z,99.90
2018-05-02T00:21:00.125Z,99.90
2018-05-02T00:23:27.747Z,99.90
2018-05-02T00:25:56.130Z,99.90
2018-05-02T00:28:23.816Z,99.90
2018-05-02T00:30:52.265Z,99.90
2018-05-02T00:33:20.670Z,99.90
2018-05-02T00:35:49.895Z,99.90
2018-05-02T00:38:17.656Z,99.90
2018-05-02T00:40:45.257Z,99.90
2018-05-02T00:43:12.930Z,99.90
2018-05-02T00:45:40.847Z,99.90
2018-05-02T00:48:08.692Z,99.90
2018-05-02T00:50:36.360Z,99.90
2018-05-02T00:53:04.756Z,99.90
2018-05-02T00:55:32.667Z,99.90
2018-05-02T00:58:00.564Z,99.90
2018-05-02T01:00:28.255Z,99.90
2018-05-02T01:02:56.687Z,99.90
2018-05-02T01:05:24.324Z,99.90
2018-05-02T01:07:51.994Z,99.90
2018-05-02T01:10:19.705Z,99.90
2018-05-02T01:12:48.011Z,99.90
2018-05-02T01:15:16.382Z,99.90
2018-05-02T01:17:44.040Z,99.90
2018-05-02T01:20:11.726Z,99.90
2018-05-02T01:22:39.363Z,99.90
2018-05-02T01:25:07.117Z,99.90
2018-05-02T01:27:34.970Z,99.90
2018-05-02T01:30:02.668Z,99.90
2018-05-02T01:32:30.398Z,99.90
2018-05-02T01:34:58.017Z,99.90
2018-05-02T01:37:26.280Z,99.90
2018-05-02T01:39:53.963Z,99.90
2018-05-02T01:42:22.336Z,99.90
2018-05-02T01:44:50.826Z,99.90
2018-05-02T01:47:18.419Z,99.90
2018-05-02T01:49:46.793Z,99.90
2018-05-02T01:52:14.689Z,99.90
2018-05-02T01:54:42.402Z,99.90
2018-05-02T01:57:10.779Z,99.90
2018-05-02T01:59:38.416Z,99.90
2018-05-02T02:02:06.084Z,99.90
2018-05-02T02:04:33.664Z,99.90
2018-05-02T02:07:01.251Z,99.90
2018-05-02T02:09:29.721Z,99.90
2018-05-02T02:11:57.318Z,99.90
2018-05-02T02:14:25.052Z,99.90
2018-05-02T02:16:52.770Z,99.90
2018-05-02T02:19:20.432Z,99.90
2018-05-02T02:21:48.635Z,99.90
2018-05-02T02:24:16.243Z,99.90
2018-05-02T02:26:45.573Z,99.90
2018-05-02T02:29:13.221Z,99.90
2018-05-02T02:31:40.973Z,99.90
2018-05-02T02:34:08.631Z,99.90
2018-05-02T02:36:36.295Z,99.90
2018-05-02T02:39:03.988Z,99.90
2018-05-02T02:41:31.614Z,99.90
2018-05-02T02:44:01.611Z,99.90
2018-05-02T02:46:29.792Z,99.90
2018-05-02T02:48:57.563Z,99.90
2018-05-02T02:51:25.180Z,99.90
2018-05-02T02:53:53.606Z,99.90
2018-05-02T02:56:21.292Z,99.90
2018-05-02T02:58:50.798Z,99.90
2018-05-02T03:01:18.780Z,99.90
2018-05-02T03:03:50.316Z,99.90
2018-05-02T03:06:17.912Z,99.90
2018-05-02T03:08:45.519Z,99.90
2018-05-02T03:11:22.601Z,99.90
2018-05-02T03:13:51.157Z,99.90
2018-05-02T03:16:22.967Z,99.90
2018-05-02T03:18:50.730Z,99.90
2018-05-02T03:21:18.407Z,99.90
2018-05-02T03:23:46.780Z,99.90
2018-05-02T03:26:15.984Z,99.90
2018-05-02T03:28:43.907Z,99.90
2018-05-02T03:31:11.549Z,99.90
2018-05-02T03:33:39.972Z,99.90
2018-05-02T03:36:07.601Z,99.90
2018-05-02T03:38:35.299Z,99.90
2018-05-02T03:41:02.934Z,99.90
2018-05-02T03:43:30.628Z,99.90
2018-05-02T03:45:58.279Z,99.90
2018-05-02T03:48:25.908Z,99.90
2018-05-02T03:50:53.488Z,99.90
2018-05-02T03:53:21.861Z,99.90
2018-05-02T03:55:50.245Z,99.90
2018-05-02T03:58:17.847Z,99.90
2018-05-02T04:00:57.270Z,99.90
2018-05-02T04:03:36.784Z,99.90
2018-05-02T04:09:06.183Z,99.90
2018-05-02T04:11:33.778Z,99.90
2018-05-02T04:14:02.203Z,99.90
2018-05-02T04:16:29.788Z,99.90
2018-05-02T04:18:57.404Z,99.90
2018-05-02T04:21:25.823Z,99.90
2018-05-02T04:23:53.700Z,99.90
2018-05-02T04:26:21.308Z,99.90
2018-05-02T04:28:49.688Z,99.90
2018-05-02T04:31:17.308Z,99.90
2018-05-02T04:33:45.063Z,99.90
2018-05-02T04:36:12.679Z,99.90
2018-05-02T04:38:40.284Z,99.90
2018-05-02T04:41:07.943Z,99.90
2018-05-02T04:43:35.555Z,99.90
2018-05-02T04:46:03.201Z,99.90
2018-05-02T04:48:30.825Z,99.90
2018-05-02T04:50:58.415Z,99.90
2018-05-02T04:53:26.800Z,99.90
2018-05-02T04:55:54.429Z,99.90
2018-05-02T04:58:22.060Z,99.90
2018-05-02T05:00:50.504Z,99.90
2018-05-02T05:03:18.140Z,99.90
2018-05-02T05:05:45.766Z,99.90
2018-05-02T05:08:14.179Z,99.90
2018-05-02T05:10:42.040Z,99.90
2018-05-02T05:13:09.625Z,99.90
2018-05-02T05:15:37.237Z,99.90
2018-05-02T05:18:05.028Z,99.90
2018-05-02T05:20:33.385Z,99.90
2018-05-02T05:23:00.999Z,99.90
2018-05-02T05:25:28.675Z,99.90
2018-05-02T05:27:57.084Z,99.90
2018-05-02T05:30:24.824Z,99.90
2018-05-02T05:32:53.395Z,99.90
2018-05-02T05:35:21.004Z,99.90
2018-05-02T05:37:48.705Z,99.90
2018-05-02T05:40:16.341Z,99.90
2018-05-02T05:42:44.073Z,99.90
2018-05-02T05:45:11.703Z,99.90
2018-05-02T05:47:39.432Z,99.90
2018-05-02T05:50:08.547Z,99.90
2018-05-02T05:52:36.794Z,99.90
2018-05-02T05:55:04.441Z,99.90
2018-05-02T05:57:32.078Z,99.90
2018-05-02T05:59:59.704Z,99.90
2018-05-02T06:02:27.361Z,99.90
2018-05-02T06:04:54.968Z,99.90
2018-05-02T06:07:22.713Z,99.90
2018-05-02T06:09:51.123Z,99.90
2018-05-02T06:12:19.040Z,99.90
2018-05-02T06:14:48.211Z,99.90
2018-05-02T06:17:15.907Z,99.90
2018-05-02T06:19:43.536Z,99.90
2018-05-02T06:22:11.996Z,99.90
2018-05-02T06:24:39.583Z,99.90
2018-05-02T06:27:07.183Z,99.90
2018-05-02T06:29:34.822Z,99.90
2018-05-02T06:32:02.440Z,99.90
2018-05-02T06:34:30.102Z,99.90
2018-05-02T06:36:57.702Z,99.90
2018-05-02T06:39:25.365Z,99.90
2018-05-02T06:41:52.941Z,99.90
2018-05-02T06:44:20.616Z,99.90
2018-05-02T06:46:48.409Z,99.90
2018-05-02T06:49:16.255Z,99.90
2018-05-02T06:51:43.865Z,99.90
2018-05-02T06:54:11.615Z,99.90
2018-05-02T06:56:39.223Z,99.90
2018-05-02T06:59:06.820Z,99.90
2018-05-02T07:01:34.433Z,99.90
2018-05-02T07:04:02.116Z,99.90
2018-05-02T07:06:29.721Z,99.90
2018-05-02T07:08:57.406Z,99.90
2018-05-02T07:11:26.080Z,99.90
2018-05-02T07:13:54.469Z,99.90
2018-05-02T07:16:22.093Z,99.90
2018-05-02T07:18:49.727Z,99.90
2018-05-02T07:21:17.355Z,99.90
2018-05-02T07:23:45.051Z,99.90
2018-05-02T07:26:12.604Z,99.90
2018-05-02T07:28:41.243Z,99.90
2018-05-02T07:31:08.848Z,99.90
2018-05-02T07:33:36.485Z,99.90
2018-05-02T07:36:04.068Z,99.90
2018-05-02T07:38:32.486Z,99.90
2018-05-02T07:41:00.129Z,99.90
2018-05-02T07:43:27.847Z,99.90
2018-05-02T07:45:55.517Z,99.90
2018-05-02T07:48:23.137Z,99.90
2018-05-02T07:50:50.832Z,99.90
2018-05-02T07:53:18.471Z,99.90
2018-05-02T07:55:46.112Z,99.90
2018-05-02T07:58:13.725Z,99.90
2018-05-02T08:00:41.340Z,99.90
2018-05-02T08:03:09.733Z,99.90
2018-05-02T08:05:37.358Z,99.90
2018-05-02T08:08:05.285Z,99.90
2018-05-02T08:10:33.010Z,99.90
2018-05-02T08:13:01.454Z,99.90
2018-05-02T08:15:30.363Z,99.90
2018-05-02T08:18:01.760Z,99.90
2018-05-02T08:20:30.570Z,99.90
2018-05-02T08:22:58.357Z,99.90
2018-05-02T08:25:26.090Z,99.90
2018-05-02T08:27:53.884Z,99.90
2018-05-02T08:30:21.956Z,99.90
2018-05-02T08:32:49.641Z,99.90
2018-05-02T08:35:17.280Z,99.90
2018-05-02T08:37:44.907Z,99.90
2018-05-02T08:40:12.508Z,99.90
2018-05-02T08:42:40.138Z,99.90
2018-05-02T08:45:11.775Z,99.90
2018-05-02T08:47:39.665Z,99.90
2018-05-02T08:50:08.150Z,99.90
2018-05-02T08:52:35.972Z,99.90
2018-05-02T08:55:03.692Z,99.90
2018-05-02T08:57:32.086Z,99.90
2018-05-02T08:59:59.788Z,99.90
2018-05-02T09:02:27.667Z,99.90
2018-05-02T09:04:55.344Z,99.90
2018-05-02T09:07:23.080Z,99.90
2018-05-02T09:09:51.133Z,99.90
2018-05-02T09:12:18.826Z,99.90
2018-05-02T09:14:46.717Z,99.90
2018-05-02T09:17:14.362Z,99.50
2018-05-02T09:19:42.057Z,98.40
2018-05-02T09:22:11.941Z,99.90
2018-05-02T09:24:39.600Z,99.70
2018-05-02T09:27:07.807Z,99.60
2018-05-02T09:29:36.224Z,97.70
2018-05-02T09:32:04.229Z,99.40
2018-05-02T09:34:31.984Z,99.90
2018-05-02T09:36:59.769Z,99.90
2018-05-02T09:39:28.274Z,99.90
2018-05-02T09:41:56.679Z,97.30
2018-05-02T09:44:25.689Z,97.00
2018-05-02T09:46:53.598Z,97.20
2018-05-02T09:49:23.821Z,96.10
2018-05-02T09:51:51.462Z,91.10
2018-05-02T09:54:19.220Z,93.70
2018-05-02T09:56:46.882Z,91.50
2018-05-02T09:59:14.533Z,92.30
2018-05-02T10:01:42.928Z,88.30
2018-05-02T10:04:11.327Z,89.70
2018-05-02T10:06:39.011Z,89.70
2018-05-02T10:09:07.744Z,91.50
2018-05-02T10:11:39.892Z,86.40
2018-05-02T10:14:08.576Z,84.30
2018-05-02T10:16:36.264Z,85.90
2018-05-02T10:19:04.764Z,87.50
2018-05-02T10:21:35.971Z,86.70
2018-05-02T10:24:05.954Z,86.60
2018-05-02T10:26:34.259Z,86.70
2018-05-02T10:29:01.888Z,88.60
2018-05-02T10:31:33.818Z,90.30
2018-05-02T10:34:04.886Z,86.20
2018-05-02T10:36:33.363Z,89.10
2018-05-02T10:39:01.244Z,89.10
2018-05-02T10:41:31.173Z,92.10
2018-05-02T10:43:58.899Z,92.10
2018-05-02T10:46:26.548Z,92.90
2018-05-02T10:48:54.139Z,95.50
2018-05-02T10:51:22.463Z,97.10
2018-05-02T10:53:50.376Z,97.20
2018-05-02T10:56:19.147Z,96.70
2018-05-02T10:58:47.012Z,98.30
2018-05-02T11:01:14.939Z,95.10
2018-05-02T11:03:43.549Z,93.90
2018-05-02T11:06:13.056Z,93.90
2018-05-02T11:08:40.676Z,90.30
2018-05-02T11:11:09.308Z,91.80
2018-05-02T11:13:37.196Z,91.70
2018-05-02T11:16:06.093Z,88.20
2018-05-02T11:18:34.723Z,82.10
2018-05-02T11:21:03.715Z,79.60
2018-05-02T11:23:33.098Z,74.80
2018-05-02T11:26:00.731Z,74.80
2018-05-02T11:28:28.548Z,73.90
2018-05-02T11:30:57.055Z,69.80
2018-05-02T11:33:24.948Z,69.80
2018-05-02T11:35:52.569Z,66.30
2018-05-02T11:38:20.199Z,64.40
2018-05-02T11:40:48.057Z,62.20
2018-05-02T11:43:15.700Z,62.80
2018-05-02T11:45:43.361Z,62.30
2018-05-02T11:48:11.007Z,61.20
2018-05-02T11:50:38.783Z,58.80
2018-05-02T11:53:06.418Z,60.70
2018-05-02T11:55:34.200Z,61.70
2018-05-02T11:58:02.590Z,66.30
2018-05-02T12:00:31.087Z,63.70
2018-05-02T12:02:58.793Z,63.70
2018-05-02T12:05:28.006Z,62.10
2018-05-02T12:07:56.392Z,61.90
2018-05-02T12:10:24.036Z,61.80
2018-05-02T12:12:51.660Z,59.70
2018-05-02T12:15:19.280Z,58.30
2018-05-02T12:17:46.942Z,58.30
2018-05-02T12:20:14.675Z,57.90
2018-05-02T12:22:42.440Z,57.60
2018-05-02T12:25:10.033Z,54.50
2018-05-02T12:27:37.944Z,55.90
2018-05-02T12:30:05.680Z,56.00
2018-05-02T12:32:34.244Z,57.90
2018-05-02T12:35:02.670Z,55.00
2018-05-02T12:37:30.388Z,54.70
2018-05-02T12:39:58.404Z,49.70
2018-05-02T12:42:26.828Z,48.50
2018-05-02T12:44:54.495Z,50.50
2018-05-02T12:47:22.167Z,50.00
2018-05-02T12:49:49.785Z,49.90
2018-05-02T12:52:18.533Z,51.00
2018-05-02T12:54:46.168Z,49.20
2018-05-02T12:57:13.785Z,48.40
2018-05-02T12:59:41.433Z,47.00
2018-05-02T13:02:09.173Z,46.20
2018-05-02T13:04:36.807Z,46.70
2018-05-02T13:07:04.455Z,47.70
2018-05-02T13:09:32.195Z,47.20
2018-05-02T13:11:59.895Z,47.10
2018-05-02T13:14:28.482Z,46.30
2018-05-02T13:16:56.205Z,46.30
2018-05-02T13:19:23.877Z,44.00
2018-05-02T13:21:51.480Z,44.50
2018-05-02T13:24:19.187Z,44.40
2018-05-02T13:26:47.004Z,44.40
2018-05-02T13:31:49.705Z,43.60
2018-05-02T13:34:18.005Z,44.60
2018-05-02T13:36:45.691Z,43.60
2018-05-02T13:39:13.297Z,42.80
2018-05-02T13:41:41.102Z,42.90
2018-05-02T13:44:09.728Z,42.20
2018-05-02T13:46:37.454Z,39.70
2018-05-02T13:49:05.233Z,38.40
2018-05-02T13:51:32.969Z,39.20
2018-05-02T13:54:01.461Z,35.90
2018-05-02T13:56:29.168Z,35.90
2018-05-02T13:58:56.930Z,36.00
2018-05-02T14:01:25.829Z,36.20
2018-05-02T14:03:53.609Z,36.40
2018-05-02T14:06:21.234Z,36.50
2018-05-02T14:08:48.891Z,36.90
2018-05-02T14:11:17.670Z,37.10
2018-05-02T14:13:45.303Z,37.70
2018-05-02T14:16:13.159Z,34.40
2018-05-02T14:18:41.484Z,32.40
2018-05-02T14:21:09.728Z,33.60
2018-05-02T14:23:37.442Z,35.10
2018-05-02T14:26:05.193Z,35.80
2018-05-02T14:28:33.636Z,38.10
2018-05-02T14:31:03.474Z,38.10
2018-05-02T14:33:31.214Z,37.70
2018-05-02T14:35:58.860Z,36.10
2018-05-02T14:38:26.598Z,36.50
2018-05-02T14:40:54.208Z,36.40
2018-05-02T14:43:21.828Z,36.20
2018-05-02T14:45:49.722Z,35.10
2018-05-02T14:48:17.359Z,35.20
2018-05-02T14:50:45.009Z,35.50
2018-05-02T14:53:12.704Z,36.30
2018-05-02T14:55:40.352Z,36.10
2018-05-02T14:58:08.729Z,36.00
2018-05-02T15:00:37.145Z,36.40
2018-05-02T15:03:04.802Z,36.40
2018-05-02T15:05:32.456Z,36.50
2018-05-02T15:08:00.943Z,37.40
2018-05-02T15:10:29.360Z,35.90
2018-05-02T15:12:57.543Z,35.90
2018-05-02T15:15:25.251Z,36.00
2018-05-02T15:17:52.961Z,35.80
2018-05-02T15:20:20.592Z,35.10
2018-05-02T15:22:48.208Z,33.80
2018-05-02T15:25:16.098Z,34.80
2018-05-02T15:27:44.492Z,34.20
2018-05-02T15:30:12.916Z,32.30
2018-05-02T15:32:41.509Z,32.30
2018-05-02T15:35:10.583Z,30.90
2018-05-02T15:37:38.323Z,30.40
2018-05-02T15:40:06.637Z,28.70
2018-05-02T15:42:34.294Z,29.30
2018-05-02T15:45:01.970Z,29.60
2018-05-02T15:47:29.617Z,29.80
2018-05-02T15:49:57.227Z,29.90
2018-05-02T15:52:24.889Z,29.80
2018-05-02T15:54:52.504Z,28.90
2018-05-02T15:57:20.159Z,28.80
2018-05-02T15:59:48.795Z,29.60
2018-05-02T16:02:16.686Z,29.60
2018-05-02T16:04:44.320Z,37.70
2018-05-02T16:07:12.040Z,40.90
2018-05-02T16:09:41.291Z,47.00
2018-05-02T16:12:09.075Z,46.90
2018-05-02T16:14:36.960Z,48.30
2018-05-02T16:17:06.550Z,50.30
2018-05-02T16:19:34.356Z,49.20
2018-05-02T16:22:02.093Z,49.80
2018-05-02T16:24:30.489Z,48.80
2018-05-02T16:26:58.203Z,48.80
2018-05-02T16:29:25.965Z,48.20
2018-05-02T16:31:54.503Z,49.30
2018-05-02T16:34:22.161Z,49.20
2018-05-02T16:36:49.926Z,48.00
2018-05-02T16:39:17.630Z,49.10
2018-05-02T16:41:46.457Z,49.60
2018-05-02T16:44:14.179Z,49.50
2018-05-02T16:46:42.547Z,47.50
2018-05-02T16:49:10.287Z,47.40
2018-05-02T16:51:38.000Z,48.50
2018-05-02T16:54:06.491Z,48.10
2018-05-02T16:56:34.409Z,48.50
2018-05-02T16:59:03.206Z,48.70
2018-05-02T17:01:30.810Z,48.60
2018-05-02T17:03:59.212Z,52.40
2018-05-02T17:06:26.876Z,52.40
2018-05-02T17:08:55.560Z,52.40
2018-05-02T17:11:23.204Z,52.30
2018-05-02T17:13:51.615Z,51.50
2018-05-02T17:16:19.311Z,51.50
2018-05-02T17:18:47.080Z,51.80
2018-05-02T17:21:15.513Z,52.10
2018-05-02T17:23:43.864Z,50.10
2018-05-02T17:26:12.421Z,49.30
2018-05-02T17:28:41.041Z,49.30
2018-05-02T17:31:09.551Z,49.10
2018-05-02T17:33:37.145Z,49.30
2018-05-02T17:36:04.758Z,50.80
2018-05-02T17:38:32.403Z,52.30
2018-05-02T17:41:00.091Z,54.30
2018-05-02T17:43:27.713Z,55.90
2018-05-02T17:45:56.259Z,56.80
2018-05-02T17:48:24.712Z,54.50
2018-05-02T17:50:52.408Z,54.50
2018-05-02T17:53:20.821Z,54.00
2018-05-02T17:55:48.522Z,54.00
2018-05-02T17:58:16.175Z,54.80
2018-05-02T18:00:43.796Z,53.20
2018-05-02T18:03:11.491Z,53.80
2018-05-02T18:05:39.284Z,53.80
2018-05-02T18:08:06.804Z,53.90
2018-05-02T18:10:34.491Z,53.00
2018-05-02T18:13:02.073Z,53.20
2018-05-02T18:15:29.724Z,52.00
2018-05-02T18:17:57.385Z,53.40
2018-05-02T18:20:25.031Z,55.80
2018-05-02T18:22:52.713Z,56.40
2018-05-02T18:25:20.503Z,56.40
2018-05-02T18:27:48.955Z,54.80
2018-05-02T18:30:16.599Z,54.90
2018-05-02T18:32:44.210Z,55.30
2018-05-02T18:35:12.612Z,57.10
2018-05-02T18:37:40.221Z,57.10
2018-05-02T18:40:07.853Z,57.10
2018-05-02T18:42:36.259Z,58.60
2018-05-02T18:45:03.961Z,58.60
2018-05-02T18:47:31.582Z,59.80
2018-05-02T18:49:59.224Z,59.80
2018-05-02T18:52:26.879Z,61.70
2018-05-02T18:54:56.113Z,62.60
2018-05-02T18:57:23.832Z,62.50
2018-05-02T18:59:51.521Z,63.50
2018-05-02T19:02:19.892Z,64.30
2018-05-02T19:04:47.927Z,64.30
2018-05-02T19:07:16.496Z,65.80
2018-05-02T19:09:44.284Z,65.80
2018-05-02T19:12:11.952Z,66.20
2018-05-02T19:14:39.612Z,66.70
2018-05-02T19:17:07.464Z,67.50
2018-05-02T19:19:40.740Z,68.80
2018-05-02T19:22:08.629Z,70.60
2018-05-02T19:24:41.944Z,72.70
2018-05-02T19:27:09.604Z,74.40
2018-05-02T19:29:37.516Z,75.90
2018-05-02T19:32:10.856Z,76.70
2018-05-02T19:34:38.479Z,78.50
2018-05-02T19:37:06.623Z,79.50
2018-05-02T19:39:40.296Z,80.90
2018-05-02T19:42:13.719Z,82.40
2018-05-02T19:44:42.305Z,85.60
2018-05-02T19:47:10.065Z,85.50
2018-05-02T19:49:37.801Z,86.70
2018-05-02T19:52:11.095Z,88.10
2018-05-02T19:54:39.573Z,90.30
2018-05-02T19:57:08.096Z,90.80
2018-05-02T19:59:36.158Z,90.80
2018-05-02T20:02:09.539Z,91.20
2018-05-02T20:04:37.193Z,91.70
2018-05-02T20:07:05.057Z,92.20
2018-05-02T20:09:39.326Z,92.80
2018-05-02T20:12:13.470Z,92.80
2018-05-02T20:14:41.380Z,93.10
2018-05-02T20:17:10.074Z,93.30
2018-05-02T20:19:38.650Z,93.50
2018-05-02T20:22:07.265Z,94.30
2018-05-02T20:24:34.975Z,94.30
2018-05-02T20:27:03.674Z,94.90
2018-05-02T20:29:31.462Z,95.00
2018-05-02T20:31:59.196Z,95.30
2018-05-02T20:34:26.844Z,95.60
2018-05-02T20:36:54.975Z,95.70
2018-05-02T20:39:23.116Z,96.00
2018-05-02T20:41:50.827Z,96.20
2018-05-02T20:44:20.101Z,96.80
2018-05-02T20:46:47.824Z,96.80
2018-05-02T20:49:15.534Z,97.00
2018-05-02T20:51:43.355Z,97.40
2018-05-02T20:54:11.238Z,97.60
2018-05-02T20:56:40.105Z,97.80
2018-05-02T20:59:07.847Z,98.10
2018-05-02T21:01:37.279Z,98.40
2018-05-02T21:04:05.597Z,98.70
2018-05-02T21:06:33.683Z,99.10
2018-05-02T21:09:02.380Z,99.40
2018-05-02T21:11:30.792Z,99.60
2018-05-02T21:13:59.117Z,99.60
2018-05-02T21:16:27.850Z,99.80
2018-05-02T21:18:56.584Z,99.90
2018-05-02T21:21:24.798Z,99.90
2018-05-02T21:23:53.745Z,99.90
2018-05-02T21:26:22.630Z,99.90
2018-05-02T21:28:50.806Z,99.90
2018-05-02T21:31:18.538Z,99.90
2018-05-02T21:33:46.249Z,99.90
2018-05-02T21:36:14.148Z,99.90
2018-05-02T21:38:41.748Z,99.90
2018-05-02T21:41:11.035Z,99.90
2018-05-02T21:43:39.479Z,99.90
2018-05-02T21:46:07.145Z,99.90
2018-05-02T21:48:34.789Z,99.90
2018-05-02T21:51:03.456Z,99.90
2018-05-02T21:53:31.165Z,99.90
2018-05-02T21:55:59.086Z,99.90
2018-05-02T21:58:26.723Z,99.90
2018-05-02T22:00:55.116Z,99.90
2018-05-02T22:03:23.618Z,99.90
2018-05-02T22:05:51.364Z,99.90
2018-05-02T22:08:19.824Z,99.90
2018-05-02T22:10:47.770Z,99.90
2018-05-02T22:13:15.432Z,99.90
2018-05-02T22:15:43.129Z,99.90
2018-05-02T22:18:11.900Z,99.90
2018-05-02T22:20:39.543Z,99.90
2018-05-02T22:23:08.041Z,99.90
2018-05-02T22:25:35.631Z,99.90
2018-05-02T22:28:03.248Z,99.90
2018-05-02T22:30:30.936Z,99.90
2018-05-02T22:33:02.514Z,99.90
2018-05-02T22:35:30.173Z,99.90
2018-05-02T22:37:57.857Z,99.90
2018-05-02T22:40:25.542Z,99.90
2018-05-02T22:42:53.137Z,99.90
2018-05-02T22:45:21.590Z,99.90
2018-05-02T22:47:51.029Z,99.90
2018-05-02T22:50:18.711Z,99.90
2018-05-02T22:52:48.232Z,99.90
2018-05-02T22:55:17.880Z,99.90
2018-05-02T22:57:47.064Z,99.90
2018-05-02T23:00:14.926Z,99.90
2018-05-02T23:02:43.213Z,99.90
2018-05-02T23:05:10.869Z,99.90
2018-05-02T23:07:38.529Z,99.90
2018-05-02T23:10:06.193Z,99.90
2018-05-02T23:12:33.890Z,99.90
2018-05-02T23:15:01.582Z,99.90
2018-05-02T23:17:29.224Z,99.90
2018-05-02T23:19:57.572Z,99.90
2018-05-02T23:22:25.220Z,99.90
2018-05-02T23:24:53.033Z,99.90
2018-05-02T23:27:24.326Z,99.90
2018-05-02T23:29:52.040Z,99.90
2018-05-02T23:32:19.687Z,99.90
2018-05-02T23:34:47.672Z,99.90
2018-05-02T23:37:16.859Z,99.90
2018-05-02T23:39:44.529Z,99.90
2018-05-02T23:42:12.153Z,99.90
2018-05-02T23:44:39.918Z,99.90
2018-05-02T23:47:08.548Z,99.90
2018-05-02T23:49:38.808Z,99.90
2018-05-02T23:52:06.498Z,99.90
2018-05-02T23:54:34.308Z,99.90
2018-05-02T23:57:02.638Z,99.90
2018-05-02T23:59:30.310Z,99.90
